sensor_id;sensor_type;location;lat;lon;timestamp;P1;durP1;ratioP1;P2;durP2;ratioP2
65879;SDS011;52661;51.364;6.054;2022-07-12T00:01:35;6.33;;;3.67;;
65879;SDS011;52661;51.364;6.054;2022-07-12T00:04:01;4.63;;;2.87;;
65879;SDS011;52661;51.364;6.054;2022-07-12T00:06:26;8.30;;;3.75;;
65879;SDS011;52661;51.364;6.054;2022-07-12T00:08:51;6.17;;;2.97;;
65879;SDS011;52661;51.364;6.054;2022-07-12T00:11:17;6.55;;;3.45;;
65879;SDS011;52661;51.364;6.054;2022-07-12T00:13:42;6.70;;;4.20;;
65879;SDS011;52661;51.364;6.054;2022-07-12T00:16:07;8.27;;;3.47;;
65879;SDS011;52661;51.364;6.054;2022-07-12T00:18:33;12.63;;;2.60;;
65879;SDS011;52661;51.364;6.054;2022-07-12T00:20:58;5.95;;;3.03;;
65879;SDS011;52661;51.364;6.054;2022-07-12T00:23:24;7.53;;;3.20;;
65879;SDS011;52661;51.364;6.054;2022-07-12T00:25:49;5.25;;;2.97;;
65879;SDS011;52661;51.364;6.054;2022-07-12T00:28:15;6.60;;;3.28;;
65879;SDS011;52661;51.364;6.054;2022-07-12T00:30:40;8.17;;;4.13;;
65879;SDS011;52661;51.364;6.054;2022-07-12T00:33:06;7.53;;;3.30;;
65879;SDS011;52661;51.364;6.054;2022-07-12T00:35:31;4.80;;;2.55;;
65879;SDS011;52661;51.364;6.054;2022-07-12T00:37:56;4.50;;;2.90;;
65879;SDS011;52661;51.364;6.054;2022-07-12T00:40:22;6.53;;;2.55;;
65879;SDS011;52661;51.364;6.054;2022-07-12T00:42:47;5.53;;;2.70;;
65879;SDS011;52661;51.364;6.054;2022-07-12T00:45:12;8.38;;;3.63;;
65879;SDS011;52661;51.364;6.054;2022-07-12T00:47:39;4.22;;;2.70;;
65879;SDS011;52661;51.364;6.054;2022-07-12T00:50:07;5.18;;;2.33;;
65879;SDS011;52661;51.364;6.054;2022-07-12T00:52:35;5.75;;;2.83;;
65879;SDS011;52661;51.364;6.054;2022-07-12T00:55:01;6.18;;;2.42;;
65879;SDS011;52661;51.364;6.054;2022-07-12T00:57:27;5.10;;;2.15;;
65879;SDS011;52661;51.364;6.054;2022-07-12T00:59:53;3.25;;;1.52;;
65879;SDS011;52661;51.364;6.054;2022-07-12T01:02:19;6.17;;;2.40;;
65879;SDS011;52661;51.364;6.054;2022-07-12T01:04:44;4.40;;;2.85;;
65879;SDS011;52661;51.364;6.054;2022-07-12T01:07:10;6.50;;;2.80;;
65879;SDS011;52661;51.364;6.054;2022-07-12T01:09:36;4.53;;;2.15;;
65879;SDS011;52661;51.364;6.054;2022-07-12T01:12:03;4.80;;;2.38;;
65879;SDS011;52661;51.364;6.054;2022-07-12T01:14:29;5.07;;;2.30;;
65879;SDS011;52661;51.364;6.054;2022-07-12T01:16:55;7.43;;;2.17;;
65879;SDS011;52661;51.364;6.054;2022-07-12T01:19:21;5.35;;;2.65;;
65879;SDS011;52661;51.364;6.054;2022-07-12T01:21:48;6.30;;;3.30;;
65879;SDS011;52661;51.364;6.054;2022-07-12T01:24:16;5.70;;;2.40;;
65879;SDS011;52661;51.364;6.054;2022-07-12T01:29:08;7.07;;;2.50;;
65879;SDS011;52661;51.364;6.054;2022-07-12T01:31:34;6.25;;;3.35;;
65879;SDS011;52661;51.364;6.054;2022-07-12T01:34:00;4.68;;;2.28;;
65879;SDS011;52661;51.364;6.054;2022-07-12T01:36:27;7.40;;;3.55;;
65879;SDS011;52661;51.364;6.054;2022-07-12T01:38:53;7.32;;;3.15;;
65879;SDS011;52661;51.364;6.054;2022-07-12T01:41:18;8.23;;;4.20;;
65879;SDS011;52661;51.364;6.054;2022-07-12T01:43:44;5.53;;;3.13;;
65879;SDS011;52661;51.364;6.054;2022-07-12T01:46:10;5.85;;;3.58;;
65879;SDS011;52661;51.364;6.054;2022-07-12T01:48:36;5.07;;;2.57;;
65879;SDS011;52661;51.364;6.054;2022-07-12T01:51:01;6.10;;;3.03;;
65879;SDS011;52661;51.364;6.054;2022-07-12T01:53:26;5.28;;;3.47;;
65879;SDS011;52661;51.364;6.054;2022-07-12T01:55:52;5.57;;;3.05;;
65879;SDS011;52661;51.364;6.054;2022-07-12T01:58:17;5.93;;;2.75;;
65879;SDS011;52661;51.364;6.054;2022-07-12T02:00:42;7.30;;;2.92;;
65879;SDS011;52661;51.364;6.054;2022-07-12T02:03:15;3.65;;;2.60;;
65879;SDS011;52661;51.364;6.054;2022-07-12T02:05:41;4.68;;;3.08;;
65879;SDS011;52661;51.364;6.054;2022-07-12T02:08:06;3.75;;;2.63;;
65879;SDS011;52661;51.364;6.054;2022-07-12T02:10:32;5.45;;;2.97;;
65879;SDS011;52661;51.364;6.054;2022-07-12T02:12:57;4.95;;;2.58;;
65879;SDS011;52661;51.364;6.054;2022-07-12T02:15:24;11.25;;;3.78;;
65879;SDS011;52661;51.364;6.054;2022-07-12T02:17:49;9.20;;;3.53;;
65879;SDS011;52661;51.364;6.054;2022-07-12T02:20:14;4.33;;;2.70;;
65879;SDS011;52661;51.364;6.054;2022-07-12T02:22:40;11.20;;;4.37;;
65879;SDS011;52661;51.364;6.054;2022-07-12T02:25:05;24.00;;;7.70;;
65879;SDS011;52661;51.364;6.054;2022-07-12T02:27:31;11.73;;;4.88;;
65879;SDS011;52661;51.364;6.054;2022-07-12T02:29:56;10.10;;;4.95;;
65879;SDS011;52661;51.364;6.054;2022-07-12T02:32:21;7.23;;;2.70;;
65879;SDS011;52661;51.364;6.054;2022-07-12T02:34:47;5.25;;;2.92;;
65879;SDS011;52661;51.364;6.054;2022-07-12T02:37:12;7.82;;;4.07;;
65879;SDS011;52661;51.364;6.054;2022-07-12T02:39:39;14.35;;;5.40;;
65879;SDS011;52661;51.364;6.054;2022-07-12T02:42:05;13.30;;;4.32;;
65879;SDS011;52661;51.364;6.054;2022-07-12T02:44:30;10.20;;;4.05;;
65879;SDS011;52661;51.364;6.054;2022-07-12T02:46:55;7.50;;;4.97;;
65879;SDS011;52661;51.364;6.054;2022-07-12T02:49:21;6.27;;;2.97;;
65879;SDS011;52661;51.364;6.054;2022-07-12T02:51:46;6.43;;;2.43;;
65879;SDS011;52661;51.364;6.054;2022-07-12T02:54:11;4.60;;;2.63;;
65879;SDS011;52661;51.364;6.054;2022-07-12T02:56:36;9.13;;;3.80;;
65879;SDS011;52661;51.364;6.054;2022-07-12T02:59:02;13.23;;;6.07;;
65879;SDS011;52661;51.364;6.054;2022-07-12T03:01:27;18.73;;;6.93;;
65879;SDS011;52661;51.364;6.054;2022-07-12T03:03:52;9.23;;;3.70;;
65879;SDS011;52661;51.364;6.054;2022-07-12T03:06:18;7.30;;;3.17;;
65879;SDS011;52661;51.364;6.054;2022-07-12T03:08:43;6.43;;;3.13;;
65879;SDS011;52661;51.364;6.054;2022-07-12T03:11:08;5.27;;;2.80;;
65879;SDS011;52661;51.364;6.054;2022-07-12T03:13:34;2.78;;;1.85;;
65879;SDS011;52661;51.364;6.054;2022-07-12T03:15:59;10.53;;;3.97;;
65879;SDS011;52661;51.364;6.054;2022-07-12T03:18:24;3.88;;;2.47;;
65879;SDS011;52661;51.364;6.054;2022-07-12T03:20:50;9.13;;;3.40;;
65879;SDS011;52661;51.364;6.054;2022-07-12T03:23:15;4.60;;;2.70;;
65879;SDS011;52661;51.364;6.054;2022-07-12T03:25:40;3.67;;;2.47;;
65879;SDS011;52661;51.364;6.054;2022-07-12T03:28:06;5.45;;;2.33;;
65879;SDS011;52661;51.364;6.054;2022-07-12T03:30:31;5.18;;;2.10;;
65879;SDS011;52661;51.364;6.054;2022-07-12T03:32:57;4.55;;;2.95;;
65879;SDS011;52661;51.364;6.054;2022-07-12T03:35:22;4.25;;;2.53;;
65879;SDS011;52661;51.364;6.054;2022-07-12T03:37:49;3.90;;;1.88;;
65879;SDS011;52661;51.364;6.054;2022-07-12T03:40:16;5.28;;;2.72;;
65879;SDS011;52661;51.364;6.054;2022-07-12T03:42:42;3.35;;;2.45;;
65879;SDS011;52661;51.364;6.054;2022-07-12T03:45:08;4.65;;;2.03;;
65879;SDS011;52661;51.364;6.054;2022-07-12T03:47:35;4.07;;;2.28;;
65879;SDS011;52661;51.364;6.054;2022-07-12T03:50:05;3.00;;;2.10;;
65879;SDS011;52661;51.364;6.054;2022-07-12T03:52:32;3.72;;;2.10;;
65879;SDS011;52661;51.364;6.054;2022-07-12T03:54:58;3.90;;;1.83;;
65879;SDS011;52661;51.364;6.054;2022-07-12T03:57:24;4.25;;;2.40;;
65879;SDS011;52661;51.364;6.054;2022-07-12T03:59:51;4.38;;;2.25;;
65879;SDS011;52661;51.364;6.054;2022-07-12T04:02:16;5.13;;;2.55;;
65879;SDS011;52661;51.364;6.054;2022-07-12T04:04:42;2.83;;;2.07;;
65879;SDS011;52661;51.364;6.054;2022-07-12T04:07:07;5.88;;;2.80;;
65879;SDS011;52661;51.364;6.054;2022-07-12T04:09:33;6.05;;;2.50;;
65879;SDS011;52661;51.364;6.054;2022-07-12T04:11:58;4.00;;;2.40;;
65879;SDS011;52661;51.364;6.054;2022-07-12T04:14:23;5.65;;;1.92;;
65879;SDS011;52661;51.364;6.054;2022-07-12T04:16:49;2.55;;;1.65;;
65879;SDS011;52661;51.364;6.054;2022-07-12T04:19:14;3.03;;;1.90;;
65879;SDS011;52661;51.364;6.054;2022-07-12T04:21:39;6.40;;;2.23;;
65879;SDS011;52661;51.364;6.054;2022-07-12T04:24:05;5.80;;;2.87;;
65879;SDS011;52661;51.364;6.054;2022-07-12T04:26:31;4.28;;;2.53;;
65879;SDS011;52661;51.364;6.054;2022-07-12T04:28:56;11.77;;;3.60;;
65879;SDS011;52661;51.364;6.054;2022-07-12T04:31:22;15.00;;;4.28;;
65879;SDS011;52661;51.364;6.054;2022-07-12T04:33:48;26.48;;;4.22;;
65879;SDS011;52661;51.364;6.054;2022-07-12T04:36:13;21.05;;;4.00;;
65879;SDS011;52661;51.364;6.054;2022-07-12T04:38:39;10.87;;;2.90;;
65879;SDS011;52661;51.364;6.054;2022-07-12T04:41:04;12.47;;;3.33;;
65879;SDS011;52661;51.364;6.054;2022-07-12T04:43:29;7.65;;;2.45;;
65879;SDS011;52661;51.364;6.054;2022-07-12T04:45:55;4.70;;;2.20;;
65879;SDS011;52661;51.364;6.054;2022-07-12T04:48:20;10.03;;;2.73;;
65879;SDS011;52661;51.364;6.054;2022-07-12T04:50:45;4.33;;;2.97;;
65879;SDS011;52661;51.364;6.054;2022-07-12T04:53:11;4.88;;;2.70;;
65879;SDS011;52661;51.364;6.054;2022-07-12T04:55:36;4.05;;;2.50;;
65879;SDS011;52661;51.364;6.054;2022-07-12T04:58:02;3.70;;;2.72;;
65879;SDS011;52661;51.364;6.054;2022-07-12T05:00:29;4.18;;;2.60;;
65879;SDS011;52661;51.364;6.054;2022-07-12T05:02:54;4.15;;;3.67;;
65879;SDS011;52661;51.364;6.054;2022-07-12T05:05:19;5.70;;;4.33;;
65879;SDS011;52661;51.364;6.054;2022-07-12T05:07:46;6.60;;;4.28;;
65879;SDS011;52661;51.364;6.054;2022-07-12T05:10:11;12.10;;;8.77;;
65879;SDS011;52661;51.364;6.054;2022-07-12T05:12:37;16.02;;;10.70;;
65879;SDS011;52661;51.364;6.054;2022-07-12T05:15:03;12.27;;;8.57;;
65879;SDS011;52661;51.364;6.054;2022-07-12T05:17:29;13.00;;;9.25;;
65879;SDS011;52661;51.364;6.054;2022-07-12T05:19:55;10.73;;;7.53;;
65879;SDS011;52661;51.364;6.054;2022-07-12T05:22:20;10.15;;;6.70;;
65879;SDS011;52661;51.364;6.054;2022-07-12T05:24:46;9.60;;;6.75;;
65879;SDS011;52661;51.364;6.054;2022-07-12T05:27:11;10.40;;;7.03;;
65879;SDS011;52661;51.364;6.054;2022-07-12T05:29:36;11.23;;;7.00;;
65879;SDS011;52661;51.364;6.054;2022-07-12T05:32:02;10.95;;;5.68;;
65879;SDS011;52661;51.364;6.054;2022-07-12T05:34:27;9.27;;;6.38;;
65879;SDS011;52661;51.364;6.054;2022-07-12T05:36:53;8.20;;;5.15;;
65879;SDS011;52661;51.364;6.054;2022-07-12T05:39:19;9.63;;;6.50;;
65879;SDS011;52661;51.364;6.054;2022-07-12T05:41:44;9.35;;;6.22;;
65879;SDS011;52661;51.364;6.054;2022-07-12T05:44:09;9.05;;;5.95;;
65879;SDS011;52661;51.364;6.054;2022-07-12T05:46:35;9.70;;;5.33;;
65879;SDS011;52661;51.364;6.054;2022-07-12T05:49:02;9.50;;;6.35;;
65879;SDS011;52661;51.364;6.054;2022-07-12T05:51:27;11.05;;;6.03;;
65879;SDS011;52661;51.364;6.054;2022-07-12T05:54:11;8.52;;;6.13;;
65879;SDS011;52661;51.364;6.054;2022-07-12T05:56:36;8.98;;;4.53;;
65879;SDS011;52661;51.364;6.054;2022-07-12T05:59:02;9.95;;;6.00;;
65879;SDS011;52661;51.364;6.054;2022-07-12T06:01:27;10.30;;;5.70;;
65879;SDS011;52661;51.364;6.054;2022-07-12T06:03:52;11.90;;;5.70;;
65879;SDS011;52661;51.364;6.054;2022-07-12T06:06:18;9.83;;;6.13;;
65879;SDS011;52661;51.364;6.054;2022-07-12T06:08:43;9.13;;;5.80;;
65879;SDS011;52661;51.364;6.054;2022-07-12T06:11:08;8.93;;;5.63;;
65879;SDS011;52661;51.364;6.054;2022-07-12T06:13:34;7.97;;;5.67;;
65879;SDS011;52661;51.364;6.054;2022-07-12T06:15:59;11.52;;;6.97;;
65879;SDS011;52661;51.364;6.054;2022-07-12T06:18:25;7.87;;;5.50;;
65879;SDS011;52661;51.364;6.054;2022-07-12T06:20:50;8.27;;;4.82;;
65879;SDS011;52661;51.364;6.054;2022-07-12T06:23:16;8.55;;;5.60;;
65879;SDS011;52661;51.364;6.054;2022-07-12T06:25:41;8.30;;;5.90;;
65879;SDS011;52661;51.364;6.054;2022-07-12T06:28:07;9.20;;;4.90;;
65879;SDS011;52661;51.364;6.054;2022-07-12T06:30:32;9.45;;;4.82;;
65879;SDS011;52661;51.364;6.054;2022-07-12T06:32:57;7.75;;;5.65;;
65879;SDS011;52661;51.364;6.054;2022-07-12T06:35:23;7.45;;;5.20;;
65879;SDS011;52661;51.364;6.054;2022-07-12T06:37:48;7.72;;;5.10;;
65879;SDS011;52661;51.364;6.054;2022-07-12T06:40:14;7.22;;;4.97;;
65879;SDS011;52661;51.364;6.054;2022-07-12T06:42:42;6.80;;;4.45;;
65879;SDS011;52661;51.364;6.054;2022-07-12T06:45:08;11.13;;;6.28;;
65879;SDS011;52661;51.364;6.054;2022-07-12T06:47:34;12.07;;;7.15;;
65879;SDS011;52661;51.364;6.054;2022-07-12T06:49:59;8.93;;;6.68;;
65879;SDS011;52661;51.364;6.054;2022-07-12T06:52:25;14.32;;;9.75;;
65879;SDS011;52661;51.364;6.054;2022-07-12T06:54:50;14.07;;;8.65;;
65879;SDS011;52661;51.364;6.054;2022-07-12T06:57:16;9.73;;;6.83;;
65879;SDS011;52661;51.364;6.054;2022-07-12T06:59:41;9.52;;;7.20;;
65879;SDS011;52661;51.364;6.054;2022-07-12T07:02:07;9.33;;;6.03;;
65879;SDS011;52661;51.364;6.054;2022-07-12T07:04:32;11.20;;;4.87;;
65879;SDS011;52661;51.364;6.054;2022-07-12T07:06:57;6.82;;;4.70;;
65879;SDS011;52661;51.364;6.054;2022-07-12T07:09:23;5.28;;;4.25;;
65879;SDS011;52661;51.364;6.054;2022-07-12T07:11:48;5.78;;;4.45;;
65879;SDS011;52661;51.364;6.054;2022-07-12T07:14:13;6.32;;;4.97;;
65879;SDS011;52661;51.364;6.054;2022-07-12T07:16:39;6.78;;;4.63;;
65879;SDS011;52661;51.364;6.054;2022-07-12T07:19:04;5.78;;;4.25;;
65879;SDS011;52661;51.364;6.054;2022-07-12T07:21:30;6.38;;;4.70;;
65879;SDS011;52661;51.364;6.054;2022-07-12T07:23:56;5.55;;;4.25;;
65879;SDS011;52661;51.364;6.054;2022-07-12T07:26:21;6.77;;;4.53;;
65879;SDS011;52661;51.364;6.054;2022-07-12T07:28:47;7.95;;;4.70;;
65879;SDS011;52661;51.364;6.054;2022-07-12T07:31:40;5.75;;;4.30;;
65879;SDS011;52661;51.364;6.054;2022-07-12T07:34:06;7.00;;;4.55;;
65879;SDS011;52661;51.364;6.054;2022-07-12T07:36:32;6.95;;;4.50;;
65879;SDS011;52661;51.364;6.054;2022-07-12T07:38:57;4.95;;;3.45;;
65879;SDS011;52661;51.364;6.054;2022-07-12T07:41:24;7.95;;;4.50;;
65879;SDS011;52661;51.364;6.054;2022-07-12T07:43:49;11.52;;;5.40;;
65879;SDS011;52661;51.364;6.054;2022-07-12T07:46:15;7.00;;;3.85;;
65879;SDS011;52661;51.364;6.054;2022-07-12T07:48:41;7.28;;;4.75;;
65879;SDS011;52661;51.364;6.054;2022-07-12T07:51:06;8.43;;;5.73;;
65879;SDS011;52661;51.364;6.054;2022-07-12T07:53:31;7.50;;;4.72;;
65879;SDS011;52661;51.364;6.054;2022-07-12T07:55:57;5.65;;;4.15;;
65879;SDS011;52661;51.364;6.054;2022-07-12T07:58:22;8.85;;;4.65;;
65879;SDS011;52661;51.364;6.054;2022-07-12T08:00:51;9.52;;;5.10;;
65879;SDS011;52661;51.364;6.054;2022-07-12T08:03:17;6.78;;;3.97;;
65879;SDS011;52661;51.364;6.054;2022-07-12T08:05:43;4.88;;;2.85;;
65879;SDS011;52661;51.364;6.054;2022-07-12T08:08:08;5.47;;;3.23;;
65879;SDS011;52661;51.364;6.054;2022-07-12T08:10:34;6.40;;;3.60;;
65879;SDS011;52661;51.364;6.054;2022-07-12T08:12:59;5.70;;;3.45;;
65879;SDS011;52661;51.364;6.054;2022-07-12T08:15:25;5.82;;;2.80;;
65879;SDS011;52661;51.364;6.054;2022-07-12T08:17:50;5.13;;;3.45;;
65879;SDS011;52661;51.364;6.054;2022-07-12T08:20:16;5.90;;;3.33;;
65879;SDS011;52661;51.364;6.054;2022-07-12T08:22:42;4.95;;;3.35;;
65879;SDS011;52661;51.364;6.054;2022-07-12T08:27:34;6.97;;;3.90;;
65879;SDS011;52661;51.364;6.054;2022-07-12T08:29:59;6.97;;;4.77;;
65879;SDS011;52661;51.364;6.054;2022-07-12T08:32:25;5.93;;;4.00;;
65879;SDS011;52661;51.364;6.054;2022-07-12T08:34:50;6.97;;;4.27;;
65879;SDS011;52661;51.364;6.054;2022-07-12T08:37:15;5.37;;;3.67;;
65879;SDS011;52661;51.364;6.054;2022-07-12T08:39:41;5.97;;;3.80;;
65879;SDS011;52661;51.364;6.054;2022-07-12T08:42:06;6.40;;;3.47;;
65879;SDS011;52661;51.364;6.054;2022-07-12T08:44:33;6.90;;;3.92;;
65879;SDS011;52661;51.364;6.054;2022-07-12T08:46:58;6.20;;;3.67;;
65879;SDS011;52661;51.364;6.054;2022-07-12T08:49:23;3.97;;;2.00;;
65879;SDS011;52661;51.364;6.054;2022-07-12T08:51:49;6.53;;;3.80;;
65879;SDS011;52661;51.364;6.054;2022-07-12T08:54:14;6.13;;;3.50;;
65879;SDS011;52661;51.364;6.054;2022-07-12T08:56:41;4.72;;;3.65;;
65879;SDS011;52661;51.364;6.054;2022-07-12T09:01:40;5.10;;;3.55;;
65879;SDS011;52661;51.364;6.054;2022-07-12T09:06:44;6.30;;;3.40;;
65879;SDS011;52661;51.364;6.054;2022-07-12T09:09:11;5.93;;;4.20;;
65879;SDS011;52661;51.364;6.054;2022-07-12T09:11:37;7.18;;;3.83;;
65879;SDS011;52661;51.364;6.054;2022-07-12T09:16:29;5.63;;;4.55;;
65879;SDS011;52661;51.364;6.054;2022-07-12T09:19:11;8.23;;;4.97;;
65879;SDS011;52661;51.364;6.054;2022-07-12T09:21:51;9.18;;;5.15;;
65879;SDS011;52661;51.364;6.054;2022-07-12T09:24:18;7.93;;;4.07;;
65879;SDS011;52661;51.364;6.054;2022-07-12T09:26:44;6.35;;;4.22;;
65879;SDS011;52661;51.364;6.054;2022-07-12T09:29:11;5.32;;;3.97;;
65879;SDS011;52661;51.364;6.054;2022-07-12T09:31:42;5.13;;;3.70;;
65879;SDS011;52661;51.364;6.054;2022-07-12T09:34:27;5.65;;;4.72;;
65879;SDS011;52661;51.364;6.054;2022-07-12T09:37:12;5.15;;;2.88;;
65879;SDS011;52661;51.364;6.054;2022-07-12T09:39:38;3.17;;;1.75;;
65879;SDS011;52661;51.364;6.054;2022-07-12T09:42:04;9.20;;;4.28;;
65879;SDS011;52661;51.364;6.054;2022-07-12T09:44:34;5.68;;;3.10;;
65879;SDS011;52661;51.364;6.054;2022-07-12T09:47:00;4.60;;;2.20;;
65879;SDS011;52661;51.364;6.054;2022-07-12T09:49:26;7.65;;;4.70;;
65879;SDS011;52661;51.364;6.054;2022-07-12T09:51:55;4.72;;;3.30;;
65879;SDS011;52661;51.364;6.054;2022-07-12T09:54:27;5.10;;;3.33;;
65879;SDS011;52661;51.364;6.054;2022-07-12T09:56:54;4.50;;;2.92;;
65879;SDS011;52661;51.364;6.054;2022-07-12T09:59:23;15.38;;;3.53;;
65879;SDS011;52661;51.364;6.054;2022-07-12T10:01:53;5.72;;;3.03;;
65879;SDS011;52661;51.364;6.054;2022-07-12T10:04:21;8.40;;;3.35;;
65879;SDS011;52661;51.364;6.054;2022-07-12T10:06:47;5.15;;;2.92;;
65879;SDS011;52661;51.364;6.054;2022-07-12T10:09:12;4.72;;;3.15;;
65879;SDS011;52661;51.364;6.054;2022-07-12T10:11:39;5.38;;;3.17;;
65879;SDS011;52661;51.364;6.054;2022-07-12T10:14:06;3.72;;;3.22;;
65879;SDS011;52661;51.364;6.054;2022-07-12T10:16:36;3.10;;;1.70;;
65879;SDS011;52661;51.364;6.054;2022-07-12T10:22:01;3.05;;;2.17;;
65879;SDS011;52661;51.364;6.054;2022-07-12T10:29:41;3.40;;;3.10;;
65879;SDS011;52661;51.364;6.054;2022-07-12T10:32:27;4.30;;;1.98;;
65879;SDS011;52661;51.364;6.054;2022-07-12T10:34:59;5.90;;;2.60;;
65879;SDS011;52661;51.364;6.054;2022-07-12T10:37:27;3.15;;;2.35;;
65879;SDS011;52661;51.364;6.054;2022-07-12T10:42:40;3.15;;;2.13;;
65879;SDS011;52661;51.364;6.054;2022-07-12T10:45:29;2.80;;;1.83;;
65879;SDS011;52661;51.364;6.054;2022-07-12T10:48:08;3.00;;;2.28;;
65879;SDS011;52661;51.364;6.054;2022-07-12T10:53:21;3.45;;;2.13;;
65879;SDS011;52661;51.364;6.054;2022-07-12T11:01:02;4.63;;;2.15;;
65879;SDS011;52661;51.364;6.054;2022-07-12T11:03:44;3.80;;;2.38;;
65879;SDS011;52661;51.364;6.054;2022-07-12T11:06:17;3.22;;;2.28;;
65879;SDS011;52661;51.364;6.054;2022-07-12T11:11:26;3.50;;;2.28;;
65879;SDS011;52661;51.364;6.054;2022-07-12T11:13:56;3.33;;;2.45;;
65879;SDS011;52661;51.364;6.054;2022-07-12T11:16:23;3.70;;;2.75;;
65879;SDS011;52661;51.364;6.054;2022-07-12T11:18:49;3.28;;;2.72;;
65879;SDS011;52661;51.364;6.054;2022-07-12T11:21:15;3.60;;;2.47;;
65879;SDS011;52661;51.364;6.054;2022-07-12T11:23:41;5.10;;;2.50;;
65879;SDS011;52661;51.364;6.054;2022-07-12T11:26:08;3.63;;;2.47;;
65879;SDS011;52661;51.364;6.054;2022-07-12T11:31:04;8.10;;;2.65;;
65879;SDS011;52661;51.364;6.054;2022-07-12T11:33:43;3.58;;;2.95;;
65879;SDS011;52661;51.364;6.054;2022-07-12T11:36:10;3.85;;;2.95;;
65879;SDS011;52661;51.364;6.054;2022-07-12T11:38:38;4.68;;;3.22;;
65879;SDS011;52661;51.364;6.054;2022-07-12T11:41:06;4.68;;;2.85;;
65879;SDS011;52661;51.364;6.054;2022-07-12T11:43:33;4.25;;;2.60;;
65879;SDS011;52661;51.364;6.054;2022-07-12T11:46:00;4.00;;;2.60;;
65879;SDS011;52661;51.364;6.054;2022-07-12T11:48:27;3.72;;;3.00;;
65879;SDS011;52661;51.364;6.054;2022-07-12T11:50:57;3.83;;;3.30;;
65879;SDS011;52661;51.364;6.054;2022-07-12T11:53:27;3.22;;;2.92;;
65879;SDS011;52661;51.364;6.054;2022-07-12T11:55:53;6.07;;;2.92;;
65879;SDS011;52661;51.364;6.054;2022-07-12T11:58:23;5.93;;;1.67;;
65879;SDS011;52661;51.364;6.054;2022-07-12T12:00:50;4.93;;;4.32;;
65879;SDS011;52661;51.364;6.054;2022-07-12T12:05:43;3.20;;;2.45;;
65879;SDS011;52661;51.364;6.054;2022-07-12T12:08:11;2.97;;;2.28;;
65879;SDS011;52661;51.364;6.054;2022-07-12T12:10:37;2.70;;;1.80;;
65879;SDS011;52661;51.364;6.054;2022-07-12T12:13:03;3.00;;;2.08;;
65879;SDS011;52661;51.364;6.054;2022-07-12T12:15:30;6.80;;;2.40;;
65879;SDS011;52661;51.364;6.054;2022-07-12T12:23:03;2.80;;;2.10;;
65879;SDS011;52661;51.364;6.054;2022-07-12T12:25:30;2.95;;;2.17;;
65879;SDS011;52661;51.364;6.054;2022-07-12T12:28:01;3.22;;;2.35;;
65879;SDS011;52661;51.364;6.054;2022-07-12T12:30:41;4.55;;;2.10;;
65879;SDS011;52661;51.364;6.054;2022-07-12T12:33:38;3.67;;;1.92;;
65879;SDS011;52661;51.364;6.054;2022-07-12T12:38:41;5.45;;;1.75;;
65879;SDS011;52661;51.364;6.054;2022-07-12T12:41:07;2.92;;;1.95;;
65879;SDS011;52661;51.364;6.054;2022-07-12T12:43:33;4.05;;;2.45;;
65879;SDS011;52661;51.364;6.054;2022-07-12T12:45:58;4.72;;;2.25;;
65879;SDS011;52661;51.364;6.054;2022-07-12T12:48:25;2.80;;;1.63;;
65879;SDS011;52661;51.364;6.054;2022-07-12T12:50:52;2.67;;;1.60;;
65879;SDS011;52661;51.364;6.054;2022-07-12T12:53:43;2.72;;;1.42;;
65879;SDS011;52661;51.364;6.054;2022-07-12T12:56:20;3.22;;;1.60;;
65879;SDS011;52661;51.364;6.054;2022-07-12T12:58:46;3.50;;;2.13;;
65879;SDS011;52661;51.364;6.054;2022-07-12T13:01:13;1.73;;;1.63;;
65879;SDS011;52661;51.364;6.054;2022-07-12T13:03:38;1.87;;;1.37;;
65879;SDS011;52661;51.364;6.054;2022-07-12T13:06:04;3.50;;;1.30;;
65879;SDS011;52661;51.364;6.054;2022-07-12T13:08:30;2.45;;;1.55;;
65879;SDS011;52661;51.364;6.054;2022-07-12T13:10:55;1.92;;;1.73;;
65879;SDS011;52661;51.364;6.054;2022-07-12T13:13:39;2.00;;;1.65;;
65879;SDS011;52661;51.364;6.054;2022-07-12T13:16:05;3.30;;;1.90;;
65879;SDS011;52661;51.364;6.054;2022-07-12T13:18:30;2.10;;;1.58;;
65879;SDS011;52661;51.364;6.054;2022-07-12T13:20:56;2.13;;;1.92;;
65879;SDS011;52661;51.364;6.054;2022-07-12T13:23:21;3.22;;;1.60;;
65879;SDS011;52661;51.364;6.054;2022-07-12T13:25:47;2.42;;;1.38;;
65879;SDS011;52661;51.364;6.054;2022-07-12T13:28:13;41.75;;;3.50;;
65879;SDS011;52661;51.364;6.054;2022-07-12T13:30:38;12.48;;;2.00;;
65879;SDS011;52661;51.364;6.054;2022-07-12T13:33:04;6.10;;;1.42;;
65879;SDS011;52661;51.364;6.054;2022-07-12T13:35:29;4.95;;;1.08;;
65879;SDS011;52661;51.364;6.054;2022-07-12T13:37:55;1.80;;;1.00;;
65879;SDS011;52661;51.364;6.054;2022-07-12T13:40:20;1.85;;;1.42;;
65879;SDS011;52661;51.364;6.054;2022-07-12T13:42:48;2.38;;;1.52;;
65879;SDS011;52661;51.364;6.054;2022-07-12T13:45:15;2.42;;;1.50;;
65879;SDS011;52661;51.364;6.054;2022-07-12T13:47:44;3.70;;;1.42;;
65879;SDS011;52661;51.364;6.054;2022-07-12T13:50:12;3.50;;;1.38;;
65879;SDS011;52661;51.364;6.054;2022-07-12T13:52:38;2.90;;;1.35;;
65879;SDS011;52661;51.364;6.054;2022-07-12T13:55:04;2.58;;;1.13;;
65879;SDS011;52661;51.364;6.054;2022-07-12T13:57:31;2.97;;;1.88;;
65879;SDS011;52661;51.364;6.054;2022-07-12T13:59:57;1.88;;;1.50;;
65879;SDS011;52661;51.364;6.054;2022-07-12T14:02:23;2.60;;;1.25;;
65879;SDS011;52661;51.364;6.054;2022-07-12T14:04:50;5.22;;;1.30;;
65879;SDS011;52661;51.364;6.054;2022-07-12T14:07:16;36.78;;;5.38;;
65879;SDS011;52661;51.364;6.054;2022-07-12T14:09:41;2.17;;;1.20;;
65879;SDS011;52661;51.364;6.054;2022-07-12T14:12:07;4.60;;;1.15;;
65879;SDS011;52661;51.364;6.054;2022-07-12T14:14:34;3.28;;;1.75;;
65879;SDS011;52661;51.364;6.054;2022-07-12T14:17:19;3.30;;;1.20;;
65879;SDS011;52661;51.364;6.054;2022-07-12T14:19:46;3.15;;;1.17;;
65879;SDS011;52661;51.364;6.054;2022-07-12T14:22:11;1.88;;;1.02;;
65879;SDS011;52661;51.364;6.054;2022-07-12T14:24:36;4.97;;;1.60;;
65879;SDS011;52661;51.364;6.054;2022-07-12T14:27:02;3.20;;;3.00;;
65879;SDS011;52661;51.364;6.054;2022-07-12T14:29:27;1.60;;;1.35;;
65879;SDS011;52661;51.364;6.054;2022-07-12T14:31:53;1.75;;;1.55;;
65879;SDS011;52661;51.364;6.054;2022-07-12T14:34:20;9.75;;;2.38;;
65879;SDS011;52661;51.364;6.054;2022-07-12T14:36:46;2.72;;;1.15;;
65879;SDS011;52661;51.364;6.054;2022-07-12T14:39:12;2.55;;;1.42;;
65879;SDS011;52661;51.364;6.054;2022-07-12T14:41:37;3.50;;;1.53;;
65879;SDS011;52661;51.364;6.054;2022-07-12T14:44:03;3.90;;;1.92;;
65879;SDS011;52661;51.364;6.054;2022-07-12T14:46:31;2.83;;;1.55;;
65879;SDS011;52661;51.364;6.054;2022-07-12T14:48:57;3.45;;;1.50;;
65879;SDS011;52661;51.364;6.054;2022-07-12T14:51:22;4.50;;;2.23;;
65879;SDS011;52661;51.364;6.054;2022-07-12T14:53:48;6.30;;;2.58;;
65879;SDS011;52661;51.364;6.054;2022-07-12T14:56:13;3.90;;;1.73;;
65879;SDS011;52661;51.364;6.054;2022-07-12T14:58:39;2.87;;;1.60;;
65879;SDS011;52661;51.364;6.054;2022-07-12T15:01:04;4.10;;;1.90;;
65879;SDS011;52661;51.364;6.054;2022-07-12T15:03:29;3.85;;;2.75;;
65879;SDS011;52661;51.364;6.054;2022-07-12T15:05:55;2.63;;;1.35;;
65879;SDS011;52661;51.364;6.054;2022-07-12T15:08:20;4.72;;;1.67;;
65879;SDS011;52661;51.364;6.054;2022-07-12T15:10:45;7.10;;;1.60;;
65879;SDS011;52661;51.364;6.054;2022-07-12T15:13:11;3.57;;;1.40;;
65879;SDS011;52661;51.364;6.054;2022-07-12T15:15:36;2.88;;;1.55;;
65879;SDS011;52661;51.364;6.054;2022-07-12T15:18:01;2.67;;;1.55;;
65879;SDS011;52661;51.364;6.054;2022-07-12T15:20:27;3.50;;;1.98;;
65879;SDS011;52661;51.364;6.054;2022-07-12T15:22:52;5.43;;;1.88;;
65879;SDS011;52661;51.364;6.054;2022-07-12T15:25:17;2.55;;;1.65;;
65879;SDS011;52661;51.364;6.054;2022-07-12T15:27:43;2.58;;;1.42;;
65879;SDS011;52661;51.364;6.054;2022-07-12T15:30:10;5.05;;;1.30;;